sensor_id;sensor_type;location;lat;lon;timestamp;P1;durP1;ratioP1;P2;durP2;ratioP2
3149;SDS011;32503;47.748;8.960;2023-02-11T00:01:05;32.03;;;17.10;;
3149;SDS011;32503;47.748;8.960;2023-02-11T00:03:33;23.97;;;16.27;;
3149;SDS011;32503;47.748;8.960;2023-02-11T00:06:02;32.87;;;17.40;;
3149;SDS011;32503;47.748;8.960;2023-02-11T00:08:33;26.87;;;16.20;;
3149;SDS011;32503;47.748;8.960;2023-02-11T00:11:00;29.73;;;16.83;;
3149;SDS011;32503;47.748;8.960;2023-02-11T00:13:29;30.47;;;17.73;;
3149;SDS011;32503;47.748;8.960;2023-02-11T00:15:56;29.47;;;17.50;;
3149;SDS011;32503;47.748;8.960;2023-02-11T00:18:23;37.37;;;17.53;;
3149;SDS011;32503;47.748;8.960;2023-02-11T00:20:50;32.10;;;18.13;;
3149;SDS011;32503;47.748;8.960;2023-02-11T00:23:17;31.63;;;15.03;;
3149;SDS011;32503;47.748;8.960;2023-02-11T00:25:44;35.97;;;15.50;;
3149;SDS011;32503;47.748;8.960;2023-02-11T00:28:11;24.73;;;15.03;;
3149;SDS011;32503;47.748;8.960;2023-02-11T00:30:40;29.80;;;15.57;;
3149;SDS011;32503;47.748;8.960;2023-02-11T00:33:07;28.20;;;14.43;;
3149;SDS011;32503;47.748;8.960;2023-02-11T00:35:35;25.83;;;14.83;;
3149;SDS011;32503;47.748;8.960;2023-02-11T00:38:03;28.20;;;14.93;;
3149;SDS011;32503;47.748;8.960;2023-02-11T00:42:58;32.93;;;15.23;;
3149;SDS011;32503;47.748;8.960;2023-02-11T00:45:25;29.03;;;16.80;;
3149;SDS011;32503;47.748;8.960;2023-02-11T00:47:54;35.27;;;16.20;;
3149;SDS011;32503;47.748;8.960;2023-02-11T00:50:21;29.00;;;15.70;;
3149;SDS011;32503;47.748;8.960;2023-02-11T00:52:48;35.63;;;17.07;;
3149;SDS011;32503;47.748;8.960;2023-02-11T00:55:15;34.00;;;17.53;;
3149;SDS011;32503;47.748;8.960;2023-02-11T00:57:43;34.13;;;16.80;;
3149;SDS011;32503;47.748;8.960;2023-02-11T01:00:10;31.43;;;17.57;;
3149;SDS011;32503;47.748;8.960;2023-02-11T01:02:39;31.47;;;16.90;;
3149;SDS011;32503;47.748;8.960;2023-02-11T01:05:08;29.13;;;16.03;;
3149;SDS011;32503;47.748;8.960;2023-02-11T01:07:35;27.30;;;15.03;;
3149;SDS011;32503;47.748;8.960;2023-02-11T01:10:02;24.77;;;14.70;;
3149;SDS011;32503;47.748;8.960;2023-02-11T01:12:30;31.37;;;15.87;;
3149;SDS011;32503;47.748;8.960;2023-02-11T01:14:57;31.50;;;17.40;;
3149;SDS011;32503;47.748;8.960;2023-02-11T01:17:24;37.30;;;17.77;;
3149;SDS011;32503;47.748;8.960;2023-02-11T01:19:51;33.83;;;18.07;;
3149;SDS011;32503;47.748;8.960;2023-02-11T01:22:19;42.50;;;23.90;;
3149;SDS011;32503;47.748;8.960;2023-02-11T01:24:46;44.13;;;22.17;;
3149;SDS011;32503;47.748;8.960;2023-02-11T01:27:13;47.73;;;26.53;;
3149;SDS011;32503;47.748;8.960;2023-02-11T01:29:40;48.40;;;24.67;;
3149;SDS011;32503;47.748;8.960;2023-02-11T01:32:07;40.63;;;22.90;;
3149;SDS011;32503;47.748;8.960;2023-02-11T01:34:34;40.10;;;23.30;;
3149;SDS011;32503;47.748;8.960;2023-02-11T01:37:01;41.07;;;20.80;;
3149;SDS011;32503;47.748;8.960;2023-02-11T01:39:32;38.20;;;19.93;;
3149;SDS011;32503;47.748;8.960;2023-02-11T01:42:00;42.93;;;18.70;;
3149;SDS011;32503;47.748;8.960;2023-02-11T01:44:28;31.43;;;16.10;;
3149;SDS011;32503;47.748;8.960;2023-02-11T01:46:57;28.00;;;14.77;;
3149;SDS011;32503;47.748;8.960;2023-02-11T01:49:26;32.00;;;17.10;;
3149;SDS011;32503;47.748;8.960;2023-02-11T01:51:56;32.50;;;16.47;;
3149;SDS011;32503;47.748;8.960;2023-02-11T01:54:27;28.77;;;15.00;;
3149;SDS011;32503;47.748;8.960;2023-02-11T01:57:17;34.53;;;17.80;;
3149;SDS011;32503;47.748;8.960;2023-02-11T02:00:00;33.17;;;16.07;;
3149;SDS011;32503;47.748;8.960;2023-02-11T02:02:33;32.13;;;16.70;;
3149;SDS011;32503;47.748;8.960;2023-02-11T02:05:09;27.40;;;14.57;;
3149;SDS011;32503;47.748;8.960;2023-02-11T02:07:51;30.80;;;16.70;;
3149;SDS011;32503;47.748;8.960;2023-02-11T02:10:26;24.20;;;14.57;;
3149;SDS011;32503;47.748;8.960;2023-02-11T02:12:56;26.90;;;16.00;;
3149;SDS011;32503;47.748;8.960;2023-02-11T02:15:24;30.50;;;16.07;;
3149;SDS011;32503;47.748;8.960;2023-02-11T02:18:00;29.40;;;15.20;;
3149;SDS011;32503;47.748;8.960;2023-02-11T02:24:27;28.90;;;13.33;;
3149;SDS011;32503;47.748;8.960;2023-02-11T02:30:26;26.50;;;14.03;;
3149;SDS011;32503;47.748;8.960;2023-02-11T02:33:43;26.37;;;15.33;;
3149;SDS011;32503;47.748;8.960;2023-02-11T02:36:20;24.30;;;12.37;;
3149;SDS011;32503;47.748;8.960;2023-02-11T02:38:55;28.33;;;13.90;;
3149;SDS011;32503;47.748;8.960;2023-02-11T02:41:26;26.90;;;15.37;;
3149;SDS011;32503;47.748;8.960;2023-02-11T02:43:57;22.70;;;14.27;;
3149;SDS011;32503;47.748;8.960;2023-02-11T02:46:25;25.03;;;14.90;;
3149;SDS011;32503;47.748;8.960;2023-02-11T02:48:56;30.70;;;15.17;;
3149;SDS011;32503;47.748;8.960;2023-02-11T02:51:26;32.43;;;16.23;;
3149;SDS011;32503;47.748;8.960;2023-02-11T02:54:28;21.73;;;13.13;;
3149;SDS011;32503;47.748;8.960;2023-02-11T02:57:24;30.97;;;14.10;;
3149;SDS011;32503;47.748;8.960;2023-02-11T03:00:03;28.83;;;16.67;;
3149;SDS011;32503;47.748;8.960;2023-02-11T03:02:41;24.40;;;13.33;;
3149;SDS011;32503;47.748;8.960;2023-02-11T03:05:24;23.10;;;13.10;;
3149;SDS011;32503;47.748;8.960;2023-02-11T03:08:05;23.93;;;13.50;;
3149;SDS011;32503;47.748;8.960;2023-02-11T03:10:36;19.03;;;14.07;;
3149;SDS011;32503;47.748;8.960;2023-02-11T03:13:08;24.27;;;14.80;;
3149;SDS011;32503;47.748;8.960;2023-02-11T03:15:37;26.37;;;13.80;;
3149;SDS011;32503;47.748;8.960;2023-02-11T03:18:08;24.00;;;12.57;;
3149;SDS011;32503;47.748;8.960;2023-02-11T03:20:42;26.00;;;15.13;;
3149;SDS011;32503;47.748;8.960;2023-02-11T03:23:14;27.37;;;15.20;;
3149;SDS011;32503;47.748;8.960;2023-02-11T03:25:49;23.03;;;13.70;;
3149;SDS011;32503;47.748;8.960;2023-02-11T03:28:22;23.73;;;13.67;;
3149;SDS011;32503;47.748;8.960;2023-02-11T03:31:01;24.40;;;13.70;;
3149;SDS011;32503;47.748;8.960;2023-02-11T03:33:38;28.37;;;15.17;;
3149;SDS011;32503;47.748;8.960;2023-02-11T03:36:16;23.47;;;14.43;;
3149;SDS011;32503;47.748;8.960;2023-02-11T03:38:49;23.03;;;12.83;;
3149;SDS011;32503;47.748;8.960;2023-02-11T03:41:21;29.73;;;13.90;;
3149;SDS011;32503;47.748;8.960;2023-02-11T03:43:50;28.83;;;13.00;;
3149;SDS011;32503;47.748;8.960;2023-02-11T03:46:21;27.20;;;15.23;;
3149;SDS011;32503;47.748;8.960;2023-02-11T03:48:54;29.53;;;14.43;;
3149;SDS011;32503;47.748;8.960;2023-02-11T03:51:27;29.90;;;15.80;;
3149;SDS011;32503;47.748;8.960;2023-02-11T03:53:57;29.53;;;16.60;;
3149;SDS011;32503;47.748;8.960;2023-02-11T03:56:29;29.97;;;17.03;;
3149;SDS011;32503;47.748;8.960;2023-02-11T03:59:03;28.87;;;16.20;;
3149;SDS011;32503;47.748;8.960;2023-02-11T04:01:30;31.57;;;16.83;;
3149;SDS011;32503;47.748;8.960;2023-02-11T04:03:57;28.30;;;14.90;;
3149;SDS011;32503;47.748;8.960;2023-02-11T04:06:24;32.50;;;15.33;;
3149;SDS011;32503;47.748;8.960;2023-02-11T04:08:53;30.87;;;14.17;;
3149;SDS011;32503;47.748;8.960;2023-02-11T04:11:20;25.20;;;15.13;;
3149;SDS011;32503;47.748;8.960;2023-02-11T04:13:47;27.17;;;14.77;;
3149;SDS011;32503;47.748;8.960;2023-02-11T04:16:14;26.77;;;15.50;;
3149;SDS011;32503;47.748;8.960;2023-02-11T04:18:41;31.10;;;14.43;;
3149;SDS011;32503;47.748;8.960;2023-02-11T04:21:08;28.00;;;14.93;;
3149;SDS011;32503;47.748;8.960;2023-02-11T04:23:35;31.50;;;15.90;;
3149;SDS011;32503;47.748;8.960;2023-02-11T04:26:04;36.60;;;16.67;;
3149;SDS011;32503;47.748;8.960;2023-02-11T04:28:31;27.87;;;14.50;;
3149;SDS011;32503;47.748;8.960;2023-02-11T04:30:59;29.87;;;15.70;;
3149;SDS011;32503;47.748;8.960;2023-02-11T04:33:26;26.17;;;15.17;;
3149;SDS011;32503;47.748;8.960;2023-02-11T04:35:53;29.90;;;14.67;;
3149;SDS011;32503;47.748;8.960;2023-02-11T04:38:20;29.43;;;15.97;;
3149;SDS011;32503;47.748;8.960;2023-02-11T04:40:48;30.03;;;16.03;;
3149;SDS011;32503;47.748;8.960;2023-02-11T04:43:16;26.00;;;14.50;;
3149;SDS011;32503;47.748;8.960;2023-02-11T04:45:43;25.00;;;13.67;;
3149;SDS011;32503;47.748;8.960;2023-02-11T04:48:10;25.80;;;13.30;;
3149;SDS011;32503;47.748;8.960;2023-02-11T04:50:37;22.43;;;13.10;;
3149;SDS011;32503;47.748;8.960;2023-02-11T04:53:04;23.47;;;14.40;;
3149;SDS011;32503;47.748;8.960;2023-02-11T04:55:31;36.20;;;15.73;;
3149;SDS011;32503;47.748;8.960;2023-02-11T04:57:58;25.67;;;13.77;;
3149;SDS011;32503;47.748;8.960;2023-02-11T05:00:27;25.33;;;15.53;;
3149;SDS011;32503;47.748;8.960;2023-02-11T05:02:54;24.20;;;13.70;;
3149;SDS011;32503;47.748;8.960;2023-02-11T05:05:21;37.60;;;17.70;;
3149;SDS011;32503;47.748;8.960;2023-02-11T05:07:48;29.90;;;14.97;;
3149;SDS011;32503;47.748;8.960;2023-02-11T05:10:15;40.40;;;15.10;;
3149;SDS011;32503;47.748;8.960;2023-02-11T05:12:42;25.50;;;14.27;;
3149;SDS011;32503;47.748;8.960;2023-02-11T05:15:09;30.33;;;15.03;;
3149;SDS011;32503;47.748;8.960;2023-02-11T05:17:38;32.20;;;15.13;;
3149;SDS011;32503;47.748;8.960;2023-02-11T05:20:05;28.03;;;16.23;;
3149;SDS011;32503;47.748;8.960;2023-02-11T05:22:33;26.97;;;13.73;;
3149;SDS011;32503;47.748;8.960;2023-02-11T05:25:00;32.13;;;14.60;;
3149;SDS011;32503;47.748;8.960;2023-02-11T05:27:27;25.40;;;15.30;;
3149;SDS011;32503;47.748;8.960;2023-02-11T05:29:54;31.13;;;14.20;;
3149;SDS011;32503;47.748;8.960;2023-02-11T05:32:21;27.27;;;16.43;;
3149;SDS011;32503;47.748;8.960;2023-02-11T05:34:50;22.03;;;14.80;;
3149;SDS011;32503;47.748;8.960;2023-02-11T05:37:17;32.77;;;14.73;;
3149;SDS011;32503;47.748;8.960;2023-02-11T05:39:44;27.00;;;14.20;;
3149;SDS011;32503;47.748;8.960;2023-02-11T05:42:12;33.47;;;16.33;;
3149;SDS011;32503;47.748;8.960;2023-02-11T05:44:39;32.83;;;16.80;;
3149;SDS011;32503;47.748;8.960;2023-02-11T05:47:06;25.50;;;14.03;;
3149;SDS011;32503;47.748;8.960;2023-02-11T05:49:33;29.80;;;13.07;;
3149;SDS011;32503;47.748;8.960;2023-02-11T05:52:02;23.70;;;14.30;;
3149;SDS011;32503;47.748;8.960;2023-02-11T05:54:29;28.43;;;14.73;;
3149;SDS011;32503;47.748;8.960;2023-02-11T05:56:56;26.63;;;14.77;;
3149;SDS011;32503;47.748;8.960;2023-02-11T05:59:23;28.70;;;15.47;;
3149;SDS011;32503;47.748;8.960;2023-02-11T06:01:51;29.10;;;15.07;;
3149;SDS011;32503;47.748;8.960;2023-02-11T06:04:19;19.33;;;12.07;;
3149;SDS011;32503;47.748;8.960;2023-02-11T06:06:46;29.30;;;15.07;;
3149;SDS011;32503;47.748;8.960;2023-02-11T06:09:14;22.83;;;13.93;;
3149;SDS011;32503;47.748;8.960;2023-02-11T06:11:41;26.43;;;14.13;;
3149;SDS011;32503;47.748;8.960;2023-02-11T06:14:08;26.47;;;14.50;;
3149;SDS011;32503;47.748;8.960;2023-02-11T06:16:36;21.27;;;14.57;;
3149;SDS011;32503;47.748;8.960;2023-02-11T06:19:03;23.67;;;13.33;;
3149;SDS011;32503;47.748;8.960;2023-02-11T06:21:30;19.27;;;12.20;;
3149;SDS011;32503;47.748;8.960;2023-02-11T06:23:57;28.10;;;15.03;;
3149;SDS011;32503;47.748;8.960;2023-02-11T06:26:25;28.73;;;15.07;;
3149;SDS011;32503;47.748;8.960;2023-02-11T06:28:52;28.97;;;15.67;;
3149;SDS011;32503;47.748;8.960;2023-02-11T06:31:19;26.67;;;15.00;;
3149;SDS011;32503;47.748;8.960;2023-02-11T06:33:46;31.20;;;15.00;;
3149;SDS011;32503;47.748;8.960;2023-02-11T06:36:15;28.53;;;15.70;;
3149;SDS011;32503;47.748;8.960;2023-02-11T06:38:44;30.50;;;16.23;;
3149;SDS011;32503;47.748;8.960;2023-02-11T06:41:12;24.10;;;14.40;;
3149;SDS011;32503;47.748;8.960;2023-02-11T06:43:45;30.13;;;15.13;;
3149;SDS011;32503;47.748;8.960;2023-02-11T06:46:13;32.83;;;16.13;;
3149;SDS011;32503;47.748;8.960;2023-02-11T06:48:41;24.57;;;14.30;;
3149;SDS011;32503;47.748;8.960;2023-02-11T06:51:09;28.87;;;14.00;;
3149;SDS011;32503;47.748;8.960;2023-02-11T06:53:39;23.10;;;14.07;;
3149;SDS011;32503;47.748;8.960;2023-02-11T06:56:09;80.80;;;35.10;;
3149;SDS011;32503;47.748;8.960;2023-02-11T06:58:38;67.37;;;32.00;;
3149;SDS011;32503;47.748;8.960;2023-02-11T07:01:07;39.67;;;22.20;;
3149;SDS011;32503;47.748;8.960;2023-02-11T07:03:38;38.37;;;20.50;;
3149;SDS011;32503;47.748;8.960;2023-02-11T07:06:07;44.17;;;21.87;;
3149;SDS011;32503;47.748;8.960;2023-02-11T07:08:38;32.87;;;18.53;;
3149;SDS011;32503;47.748;8.960;2023-02-11T07:11:11;42.37;;;20.70;;
3149;SDS011;32503;47.748;8.960;2023-02-11T07:13:54;42.97;;;18.40;;
3149;SDS011;32503;47.748;8.960;2023-02-11T07:16:27;33.53;;;19.50;;
3149;SDS011;32503;47.748;8.960;2023-02-11T07:18:54;36.53;;;17.47;;
3149;SDS011;32503;47.748;8.960;2023-02-11T07:21:22;33.90;;;16.73;;
3149;SDS011;32503;47.748;8.960;2023-02-11T07:23:49;44.67;;;19.90;;
3149;SDS011;32503;47.748;8.960;2023-02-11T07:26:17;36.37;;;20.40;;
3149;SDS011;32503;47.748;8.960;2023-02-11T07:28:47;56.17;;;25.17;;
3149;SDS011;32503;47.748;8.960;2023-02-11T07:31:16;60.63;;;27.63;;
3149;SDS011;32503;47.748;8.960;2023-02-11T07:33:47;46.63;;;23.53;;
3149;SDS011;32503;47.748;8.960;2023-02-11T07:36:14;40.03;;;21.10;;
3149;SDS011;32503;47.748;8.960;2023-02-11T07:38:42;36.67;;;20.17;;
3149;SDS011;32503;47.748;8.960;2023-02-11T07:41:09;33.27;;;19.50;;
3149;SDS011;32503;47.748;8.960;2023-02-11T07:43:39;34.87;;;16.63;;
3149;SDS011;32503;47.748;8.960;2023-02-11T07:46:07;33.57;;;19.93;;
3149;SDS011;32503;47.748;8.960;2023-02-11T07:48:36;20.77;;;13.17;;
3149;SDS011;32503;47.748;8.960;2023-02-11T07:51:06;24.40;;;15.73;;
3149;SDS011;32503;47.748;8.960;2023-02-11T07:53:34;32.03;;;18.23;;
3149;SDS011;32503;47.748;8.960;2023-02-11T07:56:02;34.47;;;18.27;;
3149;SDS011;32503;47.748;8.960;2023-02-11T07:58:30;31.80;;;19.30;;
3149;SDS011;32503;47.748;8.960;2023-02-11T08:01:02;33.83;;;19.20;;
3149;SDS011;32503;47.748;8.960;2023-02-11T08:03:31;33.80;;;19.60;;
3149;SDS011;32503;47.748;8.960;2023-02-11T08:06:01;35.93;;;19.60;;
3149;SDS011;32503;47.748;8.960;2023-02-11T08:08:31;37.97;;;21.17;;
3149;SDS011;32503;47.748;8.960;2023-02-11T08:11:00;34.07;;;20.60;;
3149;SDS011;32503;47.748;8.960;2023-02-11T08:13:32;38.77;;;21.50;;
3149;SDS011;32503;47.748;8.960;2023-02-11T08:16:00;39.43;;;21.93;;
3149;SDS011;32503;47.748;8.960;2023-02-11T08:18:27;35.33;;;20.13;;
3149;SDS011;32503;47.748;8.960;2023-02-11T08:20:55;38.60;;;22.17;;
3149;SDS011;32503;47.748;8.960;2023-02-11T08:23:22;48.47;;;25.30;;
3149;SDS011;32503;47.748;8.960;2023-02-11T08:25:50;43.60;;;23.60;;
3149;SDS011;32503;47.748;8.960;2023-02-11T08:28:17;40.90;;;22.40;;
3149;SDS011;32503;47.748;8.960;2023-02-11T08:30:44;38.50;;;20.50;;
3149;SDS011;32503;47.748;8.960;2023-02-11T08:33:11;37.03;;;19.03;;
3149;SDS011;32503;47.748;8.960;2023-02-11T08:35:38;34.77;;;19.40;;
3149;SDS011;32503;47.748;8.960;2023-02-11T08:38:05;39.60;;;20.20;;
3149;SDS011;32503;47.748;8.960;2023-02-11T08:40:33;32.00;;;19.03;;
3149;SDS011;32503;47.748;8.960;2023-02-11T08:43:01;38.47;;;20.27;;
3149;SDS011;32503;47.748;8.960;2023-02-11T08:45:28;37.57;;;19.60;;
3149;SDS011;32503;47.748;8.960;2023-02-11T08:47:56;34.20;;;18.67;;
3149;SDS011;32503;47.748;8.960;2023-02-11T08:50:23;34.90;;;19.73;;
3149;SDS011;32503;47.748;8.960;2023-02-11T08:52:52;32.10;;;19.03;;
3149;SDS011;32503;47.748;8.960;2023-02-11T08:55:19;35.73;;;20.53;;
3149;SDS011;32503;47.748;8.960;2023-02-11T08:57:46;45.80;;;21.20;;
3149;SDS011;32503;47.748;8.960;2023-02-11T09:00:15;34.20;;;20.10;;
3149;SDS011;32503;47.748;8.960;2023-02-11T09:02:43;35.93;;;20.77;;
3149;SDS011;32503;47.748;8.960;2023-02-11T09:05:10;35.47;;;20.67;;
3149;SDS011;32503;47.748;8.960;2023-02-11T09:07:37;49.80;;;27.00;;
3149;SDS011;32503;47.748;8.960;2023-02-11T09:10:05;44.37;;;25.40;;
3149;SDS011;32503;47.748;8.960;2023-02-11T09:12:33;39.90;;;21.83;;
3149;SDS011;32503;47.748;8.960;2023-02-11T09:15:00;47.03;;;24.23;;
3149;SDS011;32503;47.748;8.960;2023-02-11T09:17:28;39.40;;;23.07;;
3149;SDS011;32503;47.748;8.960;2023-02-11T09:19:55;37.27;;;21.20;;
3149;SDS011;32503;47.748;8.960;2023-02-11T09:22:22;39.70;;;21.40;;
3149;SDS011;32503;47.748;8.960;2023-02-11T09:24:49;44.63;;;23.70;;
3149;SDS011;32503;47.748;8.960;2023-02-11T09:27:16;43.30;;;23.47;;
3149;SDS011;32503;47.748;8.960;2023-02-11T09:29:43;38.93;;;21.93;;
3149;SDS011;32503;47.748;8.960;2023-02-11T09:32:10;60.50;;;27.80;;
3149;SDS011;32503;47.748;8.960;2023-02-11T09:34:39;46.67;;;24.97;;
3149;SDS011;32503;47.748;8.960;2023-02-11T09:37:06;43.57;;;25.10;;
3149;SDS011;32503;47.748;8.960;2023-02-11T09:39:33;38.20;;;23.13;;
3149;SDS011;32503;47.748;8.960;2023-02-11T09:42:06;43.23;;;23.97;;
3149;SDS011;32503;47.748;8.960;2023-02-11T09:45:02;45.97;;;22.40;;
3149;SDS011;32503;47.748;8.960;2023-02-11T09:47:31;45.27;;;23.63;;
3149;SDS011;32503;47.748;8.960;2023-02-11T09:50:01;40.97;;;23.37;;
3149;SDS011;32503;47.748;8.960;2023-02-11T09:52:34;44.03;;;23.50;;
3149;SDS011;32503;47.748;8.960;2023-02-11T09:55:10;47.93;;;23.50;;
3149;SDS011;32503;47.748;8.960;2023-02-11T09:57:45;43.30;;;24.20;;
3149;SDS011;32503;47.748;8.960;2023-02-11T10:00:17;43.33;;;24.07;;
3149;SDS011;32503;47.748;8.960;2023-02-11T10:02:54;47.07;;;23.60;;
3149;SDS011;32503;47.748;8.960;2023-02-11T10:05:46;41.63;;;21.60;;
3149;SDS011;32503;47.748;8.960;2023-02-11T10:08:29;43.17;;;24.70;;
3149;SDS011;32503;47.748;8.960;2023-02-11T10:11:07;49.20;;;24.40;;
3149;SDS011;32503;47.748;8.960;2023-02-11T10:13:44;57.27;;;26.27;;
3149;SDS011;32503;47.748;8.960;2023-02-11T10:16:25;44.63;;;22.50;;
3149;SDS011;32503;47.748;8.960;2023-02-11T10:19:09;38.37;;;23.67;;
3149;SDS011;32503;47.748;8.960;2023-02-11T10:21:58;45.53;;;23.97;;
3149;SDS011;32503;47.748;8.960;2023-02-11T10:24:37;39.57;;;21.20;;
3149;SDS011;32503;47.748;8.960;2023-02-11T10:27:18;43.37;;;22.63;;
3149;SDS011;32503;47.748;8.960;2023-02-11T10:29:50;44.80;;;24.80;;
3149;SDS011;32503;47.748;8.960;2023-02-11T10:32:31;61.37;;;28.00;;
3149;SDS011;32503;47.748;8.960;2023-02-11T10:35:09;45.03;;;25.63;;
3149;SDS011;32503;47.748;8.960;2023-02-11T10:37:43;43.17;;;24.73;;
3149;SDS011;32503;47.748;8.960;2023-02-11T10:40:12;46.27;;;24.17;;
3149;SDS011;32503;47.748;8.960;2023-02-11T10:42:49;46.70;;;25.77;;
3149;SDS011;32503;47.748;8.960;2023-02-11T10:45:21;37.00;;;23.37;;
3149;SDS011;32503;47.748;8.960;2023-02-11T10:47:53;44.90;;;25.33;;
3149;SDS011;32503;47.748;8.960;2023-02-11T10:50:22;41.77;;;23.47;;
3149;SDS011;32503;47.748;8.960;2023-02-11T10:52:52;41.30;;;23.10;;
3149;SDS011;32503;47.748;8.960;2023-02-11T10:55:50;42.33;;;25.80;;
3149;SDS011;32503;47.748;8.960;2023-02-11T10:58:22;39.93;;;23.40;;
3149;SDS011;32503;47.748;8.960;2023-02-11T11:00:53;39.93;;;22.90;;
3149;SDS011;32503;47.748;8.960;2023-02-11T11:03:24;40.03;;;24.17;;
3149;SDS011;32503;47.748;8.960;2023-02-11T11:05:54;42.07;;;23.53;;
3149;SDS011;32503;47.748;8.960;2023-02-11T11:08:37;50.00;;;26.70;;
3149;SDS011;32503;47.748;8.960;2023-02-11T11:11:08;43.13;;;24.03;;
3149;SDS011;32503;47.748;8.960;2023-02-11T11:13:38;46.40;;;26.27;;
3149;SDS011;32503;47.748;8.960;2023-02-11T11:16:20;40.40;;;24.53;;
3149;SDS011;32503;47.748;8.960;2023-02-11T11:18:50;44.63;;;25.03;;
3149;SDS011;32503;47.748;8.960;2023-02-11T11:21:20;45.80;;;23.80;;
3149;SDS011;32503;47.748;8.960;2023-02-11T11:23:55;40.07;;;24.10;;
3149;SDS011;32503;47.748;8.960;2023-02-11T11:26:24;45.73;;;25.40;;
3149;SDS011;32503;47.748;8.960;2023-02-11T11:28:58;45.53;;;26.50;;
3149;SDS011;32503;47.748;8.960;2023-02-11T11:31:29;44.87;;;25.00;;
3149;SDS011;32503;47.748;8.960;2023-02-11T11:34:01;50.60;;;26.30;;
3149;SDS011;32503;47.748;8.960;2023-02-11T11:36:45;42.63;;;25.27;;
3149;SDS011;32503;47.748;8.960;2023-02-11T11:39:17;46.27;;;24.50;;
3149;SDS011;32503;47.748;8.960;2023-02-11T11:41:49;45.53;;;24.50;;
3149;SDS011;32503;47.748;8.960;2023-02-11T11:44:27;46.40;;;24.87;;
3149;SDS011;32503;47.748;8.960;2023-02-11T11:47:13;48.50;;;26.23;;
3149;SDS011;32503;47.748;8.960;2023-02-11T11:49:55;47.30;;;24.17;;
3149;SDS011;32503;47.748;8.960;2023-02-11T11:52:43;47.80;;;25.70;;
3149;SDS011;32503;47.748;8.960;2023-02-11T11:55:18;42.73;;;25.10;;
3149;SDS011;32503;47.748;8.960;2023-02-11T11:57:49;40.93;;;23.00;;
3149;SDS011;32503;47.748;8.960;2023-02-11T12:00:18;39.27;;;23.67;;
3149;SDS011;32503;47.748;8.960;2023-02-11T12:02:59;41.77;;;24.57;;
3149;SDS011;32503;47.748;8.960;2023-02-11T12:05:49;46.17;;;25.30;;
3149;SDS011;32503;47.748;8.960;2023-02-11T12:08:35;39.27;;;24.30;;
3149;SDS011;32503;47.748;8.960;2023-02-11T12:11:16;48.17;;;24.43;;
3149;SDS011;32503;47.748;8.960;2023-02-11T12:13:56;43.97;;;24.93;;
3149;SDS011;32503;47.748;8.960;2023-02-11T12:16:40;48.47;;;26.50;;
3149;SDS011;32503;47.748;8.960;2023-02-11T12:19:29;45.80;;;25.50;;
3149;SDS011;32503;47.748;8.960;2023-02-11T12:22:28;42.57;;;24.00;;
3149;SDS011;32503;47.748;8.960;2023-02-11T12:25:20;42.27;;;23.97;;
3149;SDS011;32503;47.748;8.960;2023-02-11T12:28:04;42.03;;;23.17;;
3149;SDS011;32503;47.748;8.960;2023-02-11T12:30:46;46.97;;;24.80;;
3149;SDS011;32503;47.748;8.960;2023-02-11T12:36:32;42.13;;;23.70;;
3149;SDS011;32503;47.748;8.960;2023-02-11T12:39:14;55.13;;;25.90;;
3149;SDS011;32503;47.748;8.960;2023-02-11T12:42:00;36.83;;;20.83;;
3149;SDS011;32503;47.748;8.960;2023-02-11T12:45:06;37.70;;;21.27;;
3149;SDS011;32503;47.748;8.960;2023-02-11T12:47:48;40.00;;;21.50;;
3149;SDS011;32503;47.748;8.960;2023-02-11T12:50:29;38.40;;;22.97;;
3149;SDS011;32503;47.748;8.960;2023-02-11T12:53:20;40.87;;;22.60;;
3149;SDS011;32503;47.748;8.960;2023-02-11T12:56:03;46.83;;;24.87;;
3149;SDS011;32503;47.748;8.960;2023-02-11T12:58:37;42.97;;;24.00;;
3149;SDS011;32503;47.748;8.960;2023-02-11T13:01:08;45.07;;;24.53;;
3149;SDS011;32503;47.748;8.960;2023-02-11T13:03:42;40.20;;;23.30;;
3149;SDS011;32503;47.748;8.960;2023-02-11T13:06:13;40.30;;;23.07;;
3149;SDS011;32503;47.748;8.960;2023-02-11T13:08:46;42.27;;;24.37;;
3149;SDS011;32503;47.748;8.960;2023-02-11T13:11:16;50.00;;;25.47;;
3149;SDS011;32503;47.748;8.960;2023-02-11T13:13:49;42.50;;;24.83;;
3149;SDS011;32503;47.748;8.960;2023-02-11T13:16:29;40.80;;;21.87;;
3149;SDS011;32503;47.748;8.960;2023-02-11T13:19:06;46.47;;;23.73;;
3149;SDS011;32503;47.748;8.960;2023-02-11T13:21:49;40.07;;;23.10;;
3149;SDS011;32503;47.748;8.960;2023-02-11T13:24:31;38.87;;;21.10;;
3149;SDS011;32503;47.748;8.960;2023-02-11T13:27:09;43.10;;;24.60;;
3149;SDS011;32503;47.748;8.960;2023-02-11T13:33:05;36.30;;;21.57;;
3149;SDS011;32503;47.748;8.960;2023-02-11T13:36:16;36.30;;;21.50;;
3149;SDS011;32503;47.748;8.960;2023-02-11T13:38:54;40.83;;;21.23;;
3149;SDS011;32503;47.748;8.960;2023-02-11T13:41:29;41.03;;;24.07;;
3149;SDS011;32503;47.748;8.960;2023-02-11T13:44:24;44.83;;;24.53;;
3149;SDS011;32503;47.748;8.960;2023-02-11T13:46:54;42.67;;;22.80;;
3149;SDS011;32503;47.748;8.960;2023-02-11T13:49:28;34.10;;;19.70;;
3149;SDS011;32503;47.748;8.960;2023-02-11T13:52:00;42.50;;;23.90;;
3149;SDS011;32503;47.748;8.960;2023-02-11T13:54:45;39.80;;;22.67;;
3149;SDS011;32503;47.748;8.960;2023-02-11T13:57:20;38.23;;;20.47;;
3149;SDS011;32503;47.748;8.960;2023-02-11T13:59:59;46.13;;;23.73;;
3149;SDS011;32503;47.748;8.960;2023-02-11T14:02:34;38.17;;;22.87;;
3149;SDS011;32503;47.748;8.960;2023-02-11T14:05:31;38.07;;;19.47;;
3149;SDS011;32503;47.748;8.960;2023-02-11T14:08:17;38.20;;;20.33;;
3149;SDS011;32503;47.748;8.960;2023-02-11T14:14:17;30.50;;;18.53;;
3149;SDS011;32503;47.748;8.960;2023-02-11T14:19:54;34.00;;;20.10;;
3149;SDS011;32503;47.748;8.960;2023-02-11T14:22:24;31.70;;;21.03;;
3149;SDS011;32503;47.748;8.960;2023-02-11T14:24:56;47.07;;;23.00;;
3149;SDS011;32503;47.748;8.960;2023-02-11T14:30:33;36.13;;;22.33;;
3149;SDS011;32503;47.748;8.960;2023-02-11T14:33:19;36.80;;;21.80;;
3149;SDS011;32503;47.748;8.960;2023-02-11T14:36:19;36.00;;;21.10;;
3149;SDS011;32503;47.748;8.960;2023-02-11T14:39:19;41.37;;;24.10;;
3149;SDS011;32503;47.748;8.960;2023-02-11T14:42:02;42.27;;;24.33;;
3149;SDS011;32503;47.748;8.960;2023-02-11T14:44:30;34.53;;;19.03;;
3149;SDS011;32503;47.748;8.960;2023-02-11T14:46:59;36.20;;;21.10;;
3149;SDS011;32503;47.748;8.960;2023-02-11T14:49:27;38.07;;;22.00;;
3149;SDS011;32503;47.748;8.960;2023-02-11T14:51:59;36.67;;;22.93;;
3149;SDS011;32503;47.748;8.960;2023-02-11T14:54:33;38.43;;;22.33;;
3149;SDS011;32503;47.748;8.960;2023-02-11T14:57:05;40.00;;;22.93;;
3149;SDS011;32503;47.748;8.960;2023-02-11T14:59:36;42.97;;;23.47;;
3149;SDS011;32503;47.748;8.960;2023-02-11T15:02:12;34.10;;;20.30;;
3149;SDS011;32503;47.748;8.960;2023-02-11T15:04:47;37.13;;;21.63;;
3149;SDS011;32503;47.748;8.960;2023-02-11T15:07:14;36.53;;;21.93;;
3149;SDS011;32503;47.748;8.960;2023-02-11T15:09:44;34.70;;;21.80;;
3149;SDS011;32503;47.748;8.960;2023-02-11T15:12:15;34.23;;;20.03;;
3149;SDS011;32503;47.748;8.960;2023-02-11T15:14:48;34.23;;;20.40;;
3149;SDS011;32503;47.748;8.960;2023-02-11T15:17:20;45.50;;;23.37;;
3149;SDS011;32503;47.748;8.960;2023-02-11T15:19:50;38.87;;;20.70;;
3149;SDS011;32503;47.748;8.960;2023-02-11T15:22:21;39.50;;;21.60;;
3149;SDS011;32503;47.748;8.960;2023-02-11T15:24:58;36.70;;;20.57;;
3149;SDS011;32503;47.748;8.960;2023-02-11T15:27:36;36.70;;;21.40;;
3149;SDS011;32503;47.748;8.960;2023-02-11T15:30:16;42.97;;;22.30;;